sensor_id;sensor_type;location;lat;lon;timestamp;P1;durP1;ratioP1;P2;durP2;ratioP2
46116;SDS011;32591;48.102;11.772;2022-07-23T00:02:09;5.45;;;4.50;;
46116;SDS011;32591;48.102;11.772;2022-07-23T00:04:54;7.05;;;5.45;;
46116;SDS011;32591;48.102;11.772;2022-07-23T00:08:15;6.93;;;4.82;;
46116;SDS011;32591;48.102;11.772;2022-07-23T00:11:38;7.15;;;4.95;;
46116;SDS011;32591;48.102;11.772;2022-07-23T00:14:54;6.43;;;5.20;;
46116;SDS011;32591;48.102;11.772;2022-07-23T00:17:59;4.68;;;4.28;;
46116;SDS011;32591;48.102;11.772;2022-07-23T00:35:07;6.85;;;4.90;;
46116;SDS011;32591;48.102;11.772;2022-07-23T00:41:54;6.03;;;5.15;;
46116;SDS011;32591;48.102;11.772;2022-07-23T00:48:54;5.68;;;4.57;;
46116;SDS011;32591;48.102;11.772;2022-07-23T00:51:50;7.47;;;5.40;;
46116;SDS011;32591;48.102;11.772;2022-07-23T01:19:51;6.63;;;5.28;;
46116;SDS011;32591;48.102;11.772;2022-07-23T01:23:52;7.70;;;5.28;;
46116;SDS011;32591;48.102;11.772;2022-07-23T01:26:42;6.63;;;5.88;;
46116;SDS011;32591;48.102;11.772;2022-07-23T01:29:26;8.70;;;6.18;;
46116;SDS011;32591;48.102;11.772;2022-07-23T01:31:59;8.35;;;7.53;;
46116;SDS011;32591;48.102;11.772;2022-07-23T01:34:44;10.77;;;7.07;;
46116;SDS011;32591;48.102;11.772;2022-07-23T01:37:24;9.60;;;6.95;;
46116;SDS011;32591;48.102;11.772;2022-07-23T01:40:00;11.70;;;7.30;;
46116;SDS011;32591;48.102;11.772;2022-07-23T01:42:58;13.63;;;7.00;;
46116;SDS011;32591;48.102;11.772;2022-07-23T01:48:16;9.98;;;6.38;;
46116;SDS011;32591;48.102;11.772;2022-07-23T01:50:51;6.33;;;5.10;;
46116;SDS011;32591;48.102;11.772;2022-07-23T01:56:12;9.63;;;3.97;;
46116;SDS011;32591;48.102;11.772;2022-07-23T01:58:58;6.53;;;3.65;;
46116;SDS011;32591;48.102;11.772;2022-07-23T02:01:33;7.10;;;3.00;;
46116;SDS011;32591;48.102;11.772;2022-07-23T02:04:18;7.40;;;3.00;;
46116;SDS011;32591;48.102;11.772;2022-07-23T02:06:57;4.45;;;2.70;;
46116;SDS011;32591;48.102;11.772;2022-07-23T02:09:31;4.50;;;2.35;;
46116;SDS011;32591;48.102;11.772;2022-07-23T02:12:07;3.60;;;2.20;;
46116;SDS011;32591;48.102;11.772;2022-07-23T02:14:45;4.63;;;2.92;;
46116;SDS011;32591;48.102;11.772;2022-07-23T02:17:18;4.28;;;3.13;;
46116;SDS011;32591;48.102;11.772;2022-07-23T02:19:53;4.88;;;2.63;;
46116;SDS011;32591;48.102;11.772;2022-07-23T02:22:41;4.53;;;2.78;;
46116;SDS011;32591;48.102;11.772;2022-07-23T02:25:20;4.68;;;2.63;;
46116;SDS011;32591;48.102;11.772;2022-07-23T02:28:02;6.05;;;2.75;;
46116;SDS011;32591;48.102;11.772;2022-07-23T02:30:46;4.65;;;2.80;;
46116;SDS011;32591;48.102;11.772;2022-07-23T02:33:19;3.67;;;2.78;;
46116;SDS011;32591;48.102;11.772;2022-07-23T02:36:03;3.85;;;2.85;;
46116;SDS011;32591;48.102;11.772;2022-07-23T02:38:47;4.78;;;2.85;;
46116;SDS011;32591;48.102;11.772;2022-07-23T02:41:42;4.40;;;2.80;;
46116;SDS011;32591;48.102;11.772;2022-07-23T02:44:40;4.97;;;3.30;;
46116;SDS011;32591;48.102;11.772;2022-07-23T02:47:38;6.78;;;2.80;;
46116;SDS011;32591;48.102;11.772;2022-07-23T02:58:34;2.58;;;2.15;;
46116;SDS011;32591;48.102;11.772;2022-07-23T03:25:15;4.65;;;3.10;;
46116;SDS011;32591;48.102;11.772;2022-07-23T03:28:18;4.97;;;3.33;;
46116;SDS011;32591;48.102;11.772;2022-07-23T03:31:23;5.18;;;3.55;;
46116;SDS011;32591;48.102;11.772;2022-07-23T03:33:55;5.05;;;3.85;;
46116;SDS011;32591;48.102;11.772;2022-07-23T03:37:06;5.05;;;3.97;;
46116;SDS011;32591;48.102;11.772;2022-07-23T03:39:58;4.72;;;3.63;;
46116;SDS011;32591;48.102;11.772;2022-07-23T03:45:27;4.45;;;3.58;;
46116;SDS011;32591;48.102;11.772;2022-07-23T03:51:02;6.05;;;4.28;;
46116;SDS011;32591;48.102;11.772;2022-07-23T03:53:37;5.18;;;4.13;;
46116;SDS011;32591;48.102;11.772;2022-07-23T03:56:11;5.80;;;4.22;;
46116;SDS011;32591;48.102;11.772;2022-07-23T03:58:46;4.47;;;3.83;;
46116;SDS011;32591;48.102;11.772;2022-07-23T04:01:49;5.47;;;4.45;;
46116;SDS011;32591;48.102;11.772;2022-07-23T04:11:01;6.28;;;4.47;;
46116;SDS011;32591;48.102;11.772;2022-07-23T04:13:32;7.35;;;4.47;;
46116;SDS011;32591;48.102;11.772;2022-07-23T04:16:04;8.30;;;4.75;;
46116;SDS011;32591;48.102;11.772;2022-07-23T04:18:40;8.15;;;5.47;;
46116;SDS011;32591;48.102;11.772;2022-07-23T04:21:53;5.43;;;4.55;;
46116;SDS011;32591;48.102;11.772;2022-07-23T04:25:05;5.43;;;4.55;;
46116;SDS011;32591;48.102;11.772;2022-07-23T04:28:30;6.43;;;5.22;;
46116;SDS011;32591;48.102;11.772;2022-07-23T04:42:39;6.78;;;5.40;;
46116;SDS011;32591;48.102;11.772;2022-07-23T04:49:17;5.68;;;4.78;;
46116;SDS011;32591;48.102;11.772;2022-07-23T04:53:07;6.03;;;4.75;;
46116;SDS011;32591;48.102;11.772;2022-07-23T04:56:10;6.60;;;5.35;;
46116;SDS011;32591;48.102;11.772;2022-07-23T04:59:01;6.15;;;4.70;;
46116;SDS011;32591;48.102;11.772;2022-07-23T05:01:54;8.00;;;5.03;;
46116;SDS011;32591;48.102;11.772;2022-07-23T05:04:45;7.57;;;5.45;;
46116;SDS011;32591;48.102;11.772;2022-07-23T05:07:18;7.18;;;5.35;;
46116;SDS011;32591;48.102;11.772;2022-07-23T05:09:54;5.82;;;5.20;;
46116;SDS011;32591;48.102;11.772;2022-07-23T05:12:43;5.85;;;5.20;;
46116;SDS011;32591;48.102;11.772;2022-07-23T05:29:27;5.78;;;4.25;;
46116;SDS011;32591;48.102;11.772;2022-07-23T05:32:34;6.55;;;4.85;;
46116;SDS011;32591;48.102;11.772;2022-07-23T05:35:39;5.90;;;4.68;;
46116;SDS011;32591;48.102;11.772;2022-07-23T05:39:45;6.38;;;5.03;;
46116;SDS011;32591;48.102;11.772;2022-07-23T05:42:56;5.50;;;4.38;;
46116;SDS011;32591;48.102;11.772;2022-07-23T05:45:47;4.95;;;4.15;;
46116;SDS011;32591;48.102;11.772;2022-07-23T05:48:21;7.55;;;4.93;;
46116;SDS011;32591;48.102;11.772;2022-07-23T05:50:59;6.75;;;4.70;;
46116;SDS011;32591;48.102;11.772;2022-07-23T05:53:32;6.25;;;4.47;;
46116;SDS011;32591;48.102;11.772;2022-07-23T05:56:00;6.03;;;4.10;;
46116;SDS011;32591;48.102;11.772;2022-07-23T05:58:27;7.68;;;5.38;;
46116;SDS011;32591;48.102;11.772;2022-07-23T06:00:54;6.05;;;4.97;;
46116;SDS011;32591;48.102;11.772;2022-07-23T06:03:21;5.60;;;4.85;;
46116;SDS011;32591;48.102;11.772;2022-07-23T06:05:48;6.90;;;5.00;;
46116;SDS011;32591;48.102;11.772;2022-07-23T06:08:15;5.93;;;5.32;;
46116;SDS011;32591;48.102;11.772;2022-07-23T06:10:42;10.05;;;4.93;;
46116;SDS011;32591;48.102;11.772;2022-07-23T06:13:10;6.05;;;5.20;;
46116;SDS011;32591;48.102;11.772;2022-07-23T06:15:37;6.78;;;5.15;;
46116;SDS011;32591;48.102;11.772;2022-07-23T06:18:04;6.25;;;5.18;;
46116;SDS011;32591;48.102;11.772;2022-07-23T06:20:31;6.15;;;5.13;;
46116;SDS011;32591;48.102;11.772;2022-07-23T06:22:58;6.25;;;5.32;;
46116;SDS011;32591;48.102;11.772;2022-07-23T06:25:25;6.18;;;5.40;;
46116;SDS011;32591;48.102;11.772;2022-07-23T06:27:52;6.15;;;4.97;;
46116;SDS011;32591;48.102;11.772;2022-07-23T06:30:20;6.68;;;5.22;;
46116;SDS011;32591;48.102;11.772;2022-07-23T06:32:48;7.15;;;5.35;;
46116;SDS011;32591;48.102;11.772;2022-07-23T06:35:15;8.68;;;6.35;;
46116;SDS011;32591;48.102;11.772;2022-07-23T06:37:42;6.00;;;4.82;;
46116;SDS011;32591;48.102;11.772;2022-07-23T06:40:10;8.68;;;5.65;;
46116;SDS011;32591;48.102;11.772;2022-07-23T06:42:38;7.43;;;5.50;;
46116;SDS011;32591;48.102;11.772;2022-07-23T06:45:05;7.70;;;5.55;;
46116;SDS011;32591;48.102;11.772;2022-07-23T06:47:35;9.30;;;5.65;;
46116;SDS011;32591;48.102;11.772;2022-07-23T06:50:02;6.53;;;5.68;;
46116;SDS011;32591;48.102;11.772;2022-07-23T06:52:30;7.18;;;5.95;;
46116;SDS011;32591;48.102;11.772;2022-07-23T06:54:56;7.68;;;5.70;;
46116;SDS011;32591;48.102;11.772;2022-07-23T06:57:23;9.10;;;5.75;;
46116;SDS011;32591;48.102;11.772;2022-07-23T06:59:51;7.22;;;5.30;;
46116;SDS011;32591;48.102;11.772;2022-07-23T07:02:18;7.07;;;5.13;;
46116;SDS011;32591;48.102;11.772;2022-07-23T07:04:46;6.90;;;5.40;;
46116;SDS011;32591;48.102;11.772;2022-07-23T07:07:13;7.47;;;5.35;;
46116;SDS011;32591;48.102;11.772;2022-07-23T07:09:40;6.80;;;5.72;;
46116;SDS011;32591;48.102;11.772;2022-07-23T07:12:08;6.57;;;5.25;;
46116;SDS011;32591;48.102;11.772;2022-07-23T07:14:34;6.88;;;5.38;;
46116;SDS011;32591;48.102;11.772;2022-07-23T07:17:01;6.05;;;5.45;;
46116;SDS011;32591;48.102;11.772;2022-07-23T07:19:28;6.75;;;4.97;;
46116;SDS011;32591;48.102;11.772;2022-07-23T07:21:56;10.30;;;6.22;;
46116;SDS011;32591;48.102;11.772;2022-07-23T07:24:23;6.38;;;5.32;;
46116;SDS011;32591;48.102;11.772;2022-07-23T07:26:50;6.25;;;5.13;;
46116;SDS011;32591;48.102;11.772;2022-07-23T07:29:17;8.43;;;5.63;;
46116;SDS011;32591;48.102;11.772;2022-07-23T07:31:44;6.38;;;4.82;;
46116;SDS011;32591;48.102;11.772;2022-07-23T07:34:11;6.47;;;5.30;;
46116;SDS011;32591;48.102;11.772;2022-07-23T07:36:38;6.85;;;6.00;;
46116;SDS011;32591;48.102;11.772;2022-07-23T07:39:06;6.03;;;5.10;;
46116;SDS011;32591;48.102;11.772;2022-07-23T07:41:35;9.13;;;6.22;;
46116;SDS011;32591;48.102;11.772;2022-07-23T07:44:02;9.00;;;6.15;;
46116;SDS011;32591;48.102;11.772;2022-07-23T07:46:30;6.53;;;5.45;;
46116;SDS011;32591;48.102;11.772;2022-07-23T07:48:56;6.50;;;5.70;;
46116;SDS011;32591;48.102;11.772;2022-07-23T07:51:23;8.25;;;6.05;;
46116;SDS011;32591;48.102;11.772;2022-07-23T07:53:50;6.82;;;5.47;;
46116;SDS011;32591;48.102;11.772;2022-07-23T07:56:19;6.70;;;5.32;;
46116;SDS011;32591;48.102;11.772;2022-07-23T07:58:45;7.25;;;5.90;;
46116;SDS011;32591;48.102;11.772;2022-07-23T08:01:12;6.85;;;6.15;;
46116;SDS011;32591;48.102;11.772;2022-07-23T08:03:39;8.93;;;5.85;;
46116;SDS011;32591;48.102;11.772;2022-07-23T08:06:06;9.15;;;6.28;;
46116;SDS011;32591;48.102;11.772;2022-07-23T08:08:33;8.45;;;6.18;;
46116;SDS011;32591;48.102;11.772;2022-07-23T08:11:00;6.60;;;5.65;;
46116;SDS011;32591;48.102;11.772;2022-07-23T08:13:28;7.68;;;5.95;;
46116;SDS011;32591;48.102;11.772;2022-07-23T08:15:55;8.13;;;5.75;;
46116;SDS011;32591;48.102;11.772;2022-07-23T08:18:22;8.43;;;5.65;;
46116;SDS011;32591;48.102;11.772;2022-07-23T08:20:49;6.68;;;5.63;;
46116;SDS011;32591;48.102;11.772;2022-07-23T08:23:16;7.60;;;6.03;;
46116;SDS011;32591;48.102;11.772;2022-07-23T08:25:44;7.88;;;6.53;;
46116;SDS011;32591;48.102;11.772;2022-07-23T08:28:12;7.30;;;6.50;;
46116;SDS011;32591;48.102;11.772;2022-07-23T08:30:43;7.10;;;6.35;;
46116;SDS011;32591;48.102;11.772;2022-07-23T08:33:11;6.03;;;5.40;;
46116;SDS011;32591;48.102;11.772;2022-07-23T08:35:40;7.35;;;5.85;;
46116;SDS011;32591;48.102;11.772;2022-07-23T08:38:12;7.72;;;5.63;;
46116;SDS011;32591;48.102;11.772;2022-07-23T08:40:43;6.88;;;5.47;;
46116;SDS011;32591;48.102;11.772;2022-07-23T08:43:14;6.28;;;5.68;;
46116;SDS011;32591;48.102;11.772;2022-07-23T08:45:44;7.25;;;6.25;;
46116;SDS011;32591;48.102;11.772;2022-07-23T08:48:15;6.57;;;5.90;;
46116;SDS011;32591;48.102;11.772;2022-07-23T08:50:45;10.23;;;6.53;;
46116;SDS011;32591;48.102;11.772;2022-07-23T08:53:14;10.48;;;6.60;;
46116;SDS011;32591;48.102;11.772;2022-07-23T08:55:43;6.85;;;5.65;;
46116;SDS011;32591;48.102;11.772;2022-07-23T08:58:10;9.25;;;5.55;;
46116;SDS011;32591;48.102;11.772;2022-07-23T09:00:38;11.30;;;5.70;;
46116;SDS011;32591;48.102;11.772;2022-07-23T09:03:06;7.15;;;5.57;;
46116;SDS011;32591;48.102;11.772;2022-07-23T09:05:33;6.72;;;5.47;;
46116;SDS011;32591;48.102;11.772;2022-07-23T09:08:07;6.88;;;5.88;;
46116;SDS011;32591;48.102;11.772;2022-07-23T09:13:26;6.32;;;5.65;;
46116;SDS011;32591;48.102;11.772;2022-07-23T09:15:56;6.97;;;5.63;;
46116;SDS011;32591;48.102;11.772;2022-07-23T09:18:35;6.47;;;5.40;;
46116;SDS011;32591;48.102;11.772;2022-07-23T09:23:57;6.90;;;5.07;;
46116;SDS011;32591;48.102;11.772;2022-07-23T09:26:31;7.25;;;5.53;;
46116;SDS011;32591;48.102;11.772;2022-07-23T09:29:03;6.53;;;5.70;;
46116;SDS011;32591;48.102;11.772;2022-07-23T09:31:49;7.25;;;5.82;;
46116;SDS011;32591;48.102;11.772;2022-07-23T09:34:20;7.38;;;5.20;;
46116;SDS011;32591;48.102;11.772;2022-07-23T09:36:50;6.57;;;4.70;;
46116;SDS011;32591;48.102;11.772;2022-07-23T09:39:24;6.00;;;5.40;;
46116;SDS011;32591;48.102;11.772;2022-07-23T09:41:54;6.03;;;5.38;;
46116;SDS011;32591;48.102;11.772;2022-07-23T09:44:22;7.10;;;6.00;;
46116;SDS011;32591;48.102;11.772;2022-07-23T09:46:50;7.10;;;6.40;;
46116;SDS011;32591;48.102;11.772;2022-07-23T09:49:25;6.40;;;5.13;;
46116;SDS011;32591;48.102;11.772;2022-07-23T09:51:54;6.43;;;5.57;;
46116;SDS011;32591;48.102;11.772;2022-07-23T09:54:24;6.88;;;5.65;;
46116;SDS011;32591;48.102;11.772;2022-07-23T09:56:56;6.93;;;6.05;;
46116;SDS011;32591;48.102;11.772;2022-07-23T09:59:26;5.97;;;5.38;;
46116;SDS011;32591;48.102;11.772;2022-07-23T10:01:54;8.15;;;5.80;;
46116;SDS011;32591;48.102;11.772;2022-07-23T10:04:26;7.38;;;5.20;;
46116;SDS011;32591;48.102;11.772;2022-07-23T10:06:55;6.22;;;5.07;;
46116;SDS011;32591;48.102;11.772;2022-07-23T10:09:26;6.95;;;5.55;;
46116;SDS011;32591;48.102;11.772;2022-07-23T10:11:55;6.60;;;5.13;;
46116;SDS011;32591;48.102;11.772;2022-07-23T10:14:36;6.90;;;5.00;;
46116;SDS011;32591;48.102;11.772;2022-07-23T10:17:07;5.72;;;5.22;;
46116;SDS011;32591;48.102;11.772;2022-07-23T10:19:36;5.70;;;4.70;;
46116;SDS011;32591;48.102;11.772;2022-07-23T10:22:03;8.20;;;5.20;;
46116;SDS011;32591;48.102;11.772;2022-07-23T10:27:32;8.65;;;5.47;;
46116;SDS011;32591;48.102;11.772;2022-07-23T10:30:27;5.80;;;5.13;;
46116;SDS011;32591;48.102;11.772;2022-07-23T10:33:04;6.55;;;5.10;;
46116;SDS011;32591;48.102;11.772;2022-07-23T10:35:47;5.70;;;4.85;;
46116;SDS011;32591;48.102;11.772;2022-07-23T10:38:21;7.13;;;5.00;;
46116;SDS011;32591;48.102;11.772;2022-07-23T10:40:55;6.43;;;5.32;;
46116;SDS011;32591;48.102;11.772;2022-07-23T10:43:23;7.00;;;5.18;;
46116;SDS011;32591;48.102;11.772;2022-07-23T10:45:51;5.45;;;4.75;;
46116;SDS011;32591;48.102;11.772;2022-07-23T10:48:19;5.97;;;5.15;;
46116;SDS011;32591;48.102;11.772;2022-07-23T10:53:55;6.95;;;5.00;;
46116;SDS011;32591;48.102;11.772;2022-07-23T11:02:41;7.45;;;4.90;;
46116;SDS011;32591;48.102;11.772;2022-07-23T11:05:12;6.18;;;4.50;;
46116;SDS011;32591;48.102;11.772;2022-07-23T11:10:48;4.78;;;4.22;;
46116;SDS011;32591;48.102;11.772;2022-07-23T11:13:25;7.70;;;4.78;;
46116;SDS011;32591;48.102;11.772;2022-07-23T11:16:04;6.07;;;4.43;;
46116;SDS011;32591;48.102;11.772;2022-07-23T11:21:40;5.43;;;4.13;;
46116;SDS011;32591;48.102;11.772;2022-07-23T11:24:17;10.25;;;5.20;;
46116;SDS011;32591;48.102;11.772;2022-07-23T11:29:37;6.50;;;4.47;;
46116;SDS011;32591;48.102;11.772;2022-07-23T11:32:18;6.30;;;4.65;;
46116;SDS011;32591;48.102;11.772;2022-07-23T11:34:51;7.85;;;5.25;;
46116;SDS011;32591;48.102;11.772;2022-07-23T11:40:14;6.07;;;4.80;;
46116;SDS011;32591;48.102;11.772;2022-07-23T11:42:51;8.65;;;5.18;;
46116;SDS011;32591;48.102;11.772;2022-07-23T11:45:20;5.70;;;4.78;;
46116;SDS011;32591;48.102;11.772;2022-07-23T11:47:48;8.10;;;5.55;;
46116;SDS011;32591;48.102;11.772;2022-07-23T11:50:15;6.30;;;4.93;;
46116;SDS011;32591;48.102;11.772;2022-07-23T11:52:42;6.18;;;5.00;;
46116;SDS011;32591;48.102;11.772;2022-07-23T11:55:10;7.32;;;4.88;;
46116;SDS011;32591;48.102;11.772;2022-07-23T11:57:41;8.32;;;4.60;;
46116;SDS011;32591;48.102;11.772;2022-07-23T12:00:11;8.18;;;5.75;;
46116;SDS011;32591;48.102;11.772;2022-07-23T12:02:40;6.82;;;5.22;;
46116;SDS011;32591;48.102;11.772;2022-07-23T12:05:11;6.97;;;5.30;;
46116;SDS011;32591;48.102;11.772;2022-07-23T12:07:40;5.82;;;4.93;;
46116;SDS011;32591;48.102;11.772;2022-07-23T12:10:11;7.65;;;5.05;;
46116;SDS011;32591;48.102;11.772;2022-07-23T12:12:42;6.95;;;4.93;;
46116;SDS011;32591;48.102;11.772;2022-07-23T12:15:11;7.57;;;5.45;;
46116;SDS011;32591;48.102;11.772;2022-07-23T12:17:41;6.20;;;5.18;;
46116;SDS011;32591;48.102;11.772;2022-07-23T12:20:11;8.48;;;5.00;;
46116;SDS011;32591;48.102;11.772;2022-07-23T12:22:42;7.20;;;5.07;;
46116;SDS011;32591;48.102;11.772;2022-07-23T12:25:12;7.05;;;5.30;;
46116;SDS011;32591;48.102;11.772;2022-07-23T12:27:42;5.85;;;5.25;;
46116;SDS011;32591;48.102;11.772;2022-07-23T12:30:17;5.97;;;5.00;;
46116;SDS011;32591;48.102;11.772;2022-07-23T12:32:48;5.55;;;5.00;;
46116;SDS011;32591;48.102;11.772;2022-07-23T12:35:17;7.22;;;5.53;;
46116;SDS011;32591;48.102;11.772;2022-07-23T12:37:45;7.43;;;5.13;;
46116;SDS011;32591;48.102;11.772;2022-07-23T12:43:09;7.45;;;4.97;;
46116;SDS011;32591;48.102;11.772;2022-07-23T12:45:47;6.95;;;5.65;;
46116;SDS011;32591;48.102;11.772;2022-07-23T12:48:17;6.47;;;5.82;;
46116;SDS011;32591;48.102;11.772;2022-07-23T12:50:49;7.65;;;5.53;;
46116;SDS011;32591;48.102;11.772;2022-07-23T12:53:20;6.75;;;5.25;;
46116;SDS011;32591;48.102;11.772;2022-07-23T12:55:50;5.97;;;5.35;;
46116;SDS011;32591;48.102;11.772;2022-07-23T12:58:24;7.03;;;5.13;;
46116;SDS011;32591;48.102;11.772;2022-07-23T13:00:55;6.88;;;5.28;;
46116;SDS011;32591;48.102;11.772;2022-07-23T13:03:27;5.82;;;5.00;;
46116;SDS011;32591;48.102;11.772;2022-07-23T13:05:57;7.35;;;5.60;;
46116;SDS011;32591;48.102;11.772;2022-07-23T13:08:26;8.05;;;5.70;;
46116;SDS011;32591;48.102;11.772;2022-07-23T13:10:56;6.15;;;5.10;;
46116;SDS011;32591;48.102;11.772;2022-07-23T13:13:24;5.65;;;5.15;;
46116;SDS011;32591;48.102;11.772;2022-07-23T13:15:53;6.93;;;5.60;;
46116;SDS011;32591;48.102;11.772;2022-07-23T13:18:22;7.50;;;5.38;;
46116;SDS011;32591;48.102;11.772;2022-07-23T13:20:49;6.35;;;5.15;;
46116;SDS011;32591;48.102;11.772;2022-07-23T13:23:18;6.45;;;5.57;;
46116;SDS011;32591;48.102;11.772;2022-07-23T13:25:46;7.05;;;5.60;;
46116;SDS011;32591;48.102;11.772;2022-07-23T13:28:15;6.50;;;5.78;;
46116;SDS011;32591;48.102;11.772;2022-07-23T13:30:43;6.80;;;5.90;;
46116;SDS011;32591;48.102;11.772;2022-07-23T13:33:12;5.95;;;5.35;;
46116;SDS011;32591;48.102;11.772;2022-07-23T13:35:39;6.43;;;4.95;;
46116;SDS011;32591;48.102;11.772;2022-07-23T13:38:06;6.88;;;5.40;;
46116;SDS011;32591;48.102;11.772;2022-07-23T13:40:34;6.07;;;5.28;;
46116;SDS011;32591;48.102;11.772;2022-07-23T13:43:03;8.20;;;5.13;;
46116;SDS011;32591;48.102;11.772;2022-07-23T13:45:33;7.10;;;5.63;;
46116;SDS011;32591;48.102;11.772;2022-07-23T13:48:00;7.15;;;5.22;;
46116;SDS011;32591;48.102;11.772;2022-07-23T13:50:27;7.35;;;5.85;;
46116;SDS011;32591;48.102;11.772;2022-07-23T13:52:54;6.88;;;5.07;;
46116;SDS011;32591;48.102;11.772;2022-07-23T13:55:21;5.57;;;4.97;;
46116;SDS011;32591;48.102;11.772;2022-07-23T13:57:48;6.93;;;5.35;;
46116;SDS011;32591;48.102;11.772;2022-07-23T14:00:15;6.85;;;5.60;;
46116;SDS011;32591;48.102;11.772;2022-07-23T14:02:44;7.40;;;5.72;;
46116;SDS011;32591;48.102;11.772;2022-07-23T14:05:11;8.13;;;5.60;;
46116;SDS011;32591;48.102;11.772;2022-07-23T14:07:39;6.35;;;5.30;;
46116;SDS011;32591;48.102;11.772;2022-07-23T14:10:08;7.28;;;5.25;;
46116;SDS011;32591;48.102;11.772;2022-07-23T14:12:35;8.57;;;5.63;;
46116;SDS011;32591;48.102;11.772;2022-07-23T14:15:03;6.28;;;5.30;;
46116;SDS011;32591;48.102;11.772;2022-07-23T14:17:31;6.18;;;4.75;;
46116;SDS011;32591;48.102;11.772;2022-07-23T14:20:00;9.77;;;4.97;;
46116;SDS011;32591;48.102;11.772;2022-07-23T14:22:27;11.00;;;5.82;;
46116;SDS011;32591;48.102;11.772;2022-07-23T14:24:54;4.97;;;4.43;;
46116;SDS011;32591;48.102;11.772;2022-07-23T14:27:23;6.07;;;4.65;;
46116;SDS011;32591;48.102;11.772;2022-07-23T14:29:51;6.25;;;4.80;;
46116;SDS011;32591;48.102;11.772;2022-07-23T14:32:18;7.18;;;5.35;;
46116;SDS011;32591;48.102;11.772;2022-07-23T14:34:45;6.28;;;4.35;;
46116;SDS011;32591;48.102;11.772;2022-07-23T14:37:14;5.60;;;4.47;;
46116;SDS011;32591;48.102;11.772;2022-07-23T14:39:42;7.22;;;5.28;;
46116;SDS011;32591;48.102;11.772;2022-07-23T14:42:10;6.13;;;5.22;;
46116;SDS011;32591;48.102;11.772;2022-07-23T14:44:37;7.32;;;5.15;;
46116;SDS011;32591;48.102;11.772;2022-07-23T14:47:04;6.88;;;5.68;;
46116;SDS011;32591;48.102;11.772;2022-07-23T14:49:32;6.60;;;5.10;;
46116;SDS011;32591;48.102;11.772;2022-07-23T14:52:00;7.80;;;5.53;;
46116;SDS011;32591;48.102;11.772;2022-07-23T14:54:29;6.38;;;5.47;;
46116;SDS011;32591;48.102;11.772;2022-07-23T14:56:57;5.65;;;5.07;;
46116;SDS011;32591;48.102;11.772;2022-07-23T14:59:25;6.70;;;5.43;;
46116;SDS011;32591;48.102;11.772;2022-07-23T15:01:53;7.68;;;5.80;;
46116;SDS011;32591;48.102;11.772;2022-07-23T15:04:20;6.65;;;5.55;;
46116;SDS011;32591;48.102;11.772;2022-07-23T15:06:48;7.13;;;5.97;;
46116;SDS011;32591;48.102;11.772;2022-07-23T15:09:15;7.28;;;5.22;;
46116;SDS011;32591;48.102;11.772;2022-07-23T15:11:43;7.30;;;5.80;;
46116;SDS011;32591;48.102;11.772;2022-07-23T15:14:10;5.43;;;4.85;;
46116;SDS011;32591;48.102;11.772;2022-07-23T15:16:37;8.40;;;6.45;;
46116;SDS011;32591;48.102;11.772;2022-07-23T15:19:04;7.35;;;5.72;;
46116;SDS011;32591;48.102;11.772;2022-07-23T15:21:31;7.38;;;6.68;;
46116;SDS011;32591;48.102;11.772;2022-07-23T15:23:58;7.07;;;5.60;;
46116;SDS011;32591;48.102;11.772;2022-07-23T15:26:25;7.70;;;5.88;;
46116;SDS011;32591;48.102;11.772;2022-07-23T15:28:54;6.82;;;6.13;;
46116;SDS011;32591;48.102;11.772;2022-07-23T15:31:21;7.75;;;6.03;;
46116;SDS011;32591;48.102;11.772;2022-07-23T15:33:48;7.68;;;6.53;;
46116;SDS011;32591;48.102;11.772;2022-07-23T15:36:16;8.18;;;6.47;;
46116;SDS011;32591;48.102;11.772;2022-07-23T15:38:44;6.78;;;6.05;;
46116;SDS011;32591;48.102;11.772;2022-07-23T15:41:11;7.05;;;5.65;;
46116;SDS011;32591;48.102;11.772;2022-07-23T15:43:38;7.68;;;6.45;;
46116;SDS011;32591;48.102;11.772;2022-07-23T15:46:07;7.38;;;5.93;;
46116;SDS011;32591;48.102;11.772;2022-07-23T15:48:34;9.05;;;6.18;;
46116;SDS011;32591;48.102;11.772;2022-07-23T15:51:02;7.72;;;6.10;;
46116;SDS011;32591;48.102;11.772;2022-07-23T15:53:31;8.05;;;6.43;;
46116;SDS011;32591;48.102;11.772;2022-07-23T15:55:59;6.95;;;5.90;;
46116;SDS011;32591;48.102;11.772;2022-07-23T15:58:26;8.30;;;6.53;;
46116;SDS011;32591;48.102;11.772;2022-07-23T16:00:54;7.78;;;6.22;;
46116;SDS011;32591;48.102;11.772;2022-07-23T16:03:22;7.65;;;6.70;;
46116;SDS011;32591;48.102;11.772;2022-07-23T16:05:49;8.35;;;6.75;;
46116;SDS011;32591;48.102;11.772;2022-07-23T16:08:16;7.63;;;6.80;;
46116;SDS011;32591;48.102;11.772;2022-07-23T16:10:43;7.75;;;6.93;;
46116;SDS011;32591;48.102;11.772;2022-07-23T16:13:10;7.78;;;6.97;;
46116;SDS011;32591;48.102;11.772;2022-07-23T16:15:37;8.27;;;7.28;;
46116;SDS011;32591;48.102;11.772;2022-07-23T16:18:06;7.80;;;7.05;;
46116;SDS011;32591;48.102;11.772;2022-07-23T16:20:35;8.82;;;6.78;;
46116;SDS011;32591;48.102;11.772;2022-07-23T16:23:03;7.85;;;6.28;;
46116;SDS011;32591;48.102;11.772;2022-07-23T16:25:31;7.68;;;6.47;;
46116;SDS011;32591;48.102;11.772;2022-07-23T16:27:58;8.23;;;6.93;;
46116;SDS011;32591;48.102;11.772;2022-07-23T16:30:25;9.23;;;7.45;;
46116;SDS011;32591;48.102;11.772;2022-07-23T16:32:52;7.38;;;6.53;;
46116;SDS011;32591;48.102;11.772;2022-07-23T16:35:19;8.55;;;6.70;;
46116;SDS011;32591;48.102;11.772;2022-07-23T16:37:48;9.18;;;6.90;;
46116;SDS011;32591;48.102;11.772;2022-07-23T16:40:15;11.13;;;7.70;;
46116;SDS011;32591;48.102;11.772;2022-07-23T16:42:42;8.15;;;7.35;;
46116;SDS011;32591;48.102;11.772;2022-07-23T16:45:09;7.43;;;6.70;;
46116;SDS011;32591;48.102;11.772;2022-07-23T16:47:37;9.60;;;7.78;;
46116;SDS011;32591;48.102;11.772;2022-07-23T16:50:05;8.88;;;7.15;;
46116;SDS011;32591;48.102;11.772;2022-07-23T16:52:33;7.60;;;6.90;;
46116;SDS011;32591;48.102;11.772;2022-07-23T16:55:01;8.18;;;7.38;;
46116;SDS011;32591;48.102;11.772;2022-07-23T16:57:28;7.70;;;6.75;;
46116;SDS011;32591;48.102;11.772;2022-07-23T16:59:55;9.13;;;7.15;;
46116;SDS011;32591;48.102;11.772;2022-07-23T17:02:22;8.85;;;7.63;;
46116;SDS011;32591;48.102;11.772;2022-07-23T17:04:49;10.30;;;7.90;;
46116;SDS011;32591;48.102;11.772;2022-07-23T17:07:16;8.18;;;7.32;;
46116;SDS011;32591;48.102;11.772;2022-07-23T17:09:45;9.45;;;8.35;;
46116;SDS011;32591;48.102;11.772;2022-07-23T17:12:13;10.38;;;8.10;;
46116;SDS011;32591;48.102;11.772;2022-07-23T17:14:40;10.25;;;8.82;;
46116;SDS011;32591;48.102;11.772;2022-07-23T17:17:07;9.77;;;8.68;;
46116;SDS011;32591;48.102;11.772;2022-07-23T17:19:36;10.02;;;6.70;;
46116;SDS011;32591;48.102;11.772;2022-07-23T17:22:03;8.88;;;7.97;;
46116;SDS011;32591;48.102;11.772;2022-07-23T17:24:30;8.18;;;7.38;;
46116;SDS011;32591;48.102;11.772;2022-07-23T17:26:58;7.85;;;7.00;;
46116;SDS011;32591;48.102;11.772;2022-07-23T17:29:27;10.27;;;7.30;;
46116;SDS011;32591;48.102;11.772;2022-07-23T17:31:53;9.63;;;7.40;;
46116;SDS011;32591;48.102;11.772;2022-07-23T17:34:20;9.35;;;7.85;;
46116;SDS011;32591;48.102;11.772;2022-07-23T17:36:47;10.07;;;7.07;;
46116;SDS011;32591;48.102;11.772;2022-07-23T17:39:16;10.05;;;7.57;;
46116;SDS011;32591;48.102;11.772;2022-07-23T17:41:43;8.38;;;7.57;;
46116;SDS011;32591;48.102;11.772;2022-07-23T17:44:13;8.13;;;7.32;;
46116;SDS011;32591;48.102;11.772;2022-07-23T17:46:43;8.45;;;7.55;;
46116;SDS011;32591;48.102;11.772;2022-07-23T17:49:10;9.45;;;8.00;;
46116;SDS011;32591;48.102;11.772;2022-07-23T17:51:38;10.98;;;7.85;;